createdAt,value
2022-10-08T00:00:36.402Z,51.86
2022-10-08T00:05:28.804Z,51.85
2022-10-08T00:10:21.471Z,51.85
2022-10-08T00:15:14.168Z,51.9
2022-10-08T00:20:06.926Z,51.88
2022-10-08T00:24:59.325Z,51.89
2022-10-08T00:29:51.882Z,51.84
2022-10-08T00:34:44.428Z,51.9
2022-10-08T00:39:37.105Z,51.88
2022-10-08T00:44:29.856Z,52
2022-10-08T00:49:22.362Z,51.96
2022-10-08T00:54:15.168Z,51.94
2022-10-08T00:59:07.867Z,51.93
2022-10-08T01:04:00.444Z,51.91
2022-10-08T01:08:53.229Z,51.89
2022-10-08T01:13:45.863Z,51.93
2022-10-08T01:18:38.563Z,51.96
2022-10-08T01:23:30.984Z,51.92
2022-10-08T01:28:23.468Z,51.89
2022-10-08T01:38:04.129Z,51.92
2022-10-08T01:42:57.886Z,51.9
2022-10-08T01:47:50.818Z,51.94
2022-10-08T01:52:43.503Z,51.95
2022-10-08T01:57:36.149Z,51.92
2022-10-08T02:02:28.852Z,51.88
2022-10-08T02:07:21.412Z,51.89
2022-10-08T02:12:14.253Z,51.93
2022-10-08T02:17:06.896Z,51.92
2022-10-08T02:21:59.616Z,51.9
2022-10-08T02:26:52.235Z,51.85
2022-10-08T02:31:45.185Z,51.9
2022-10-08T02:36:37.709Z,51.85
2022-10-08T02:41:30.486Z,51.96
2022-10-08T02:46:22.971Z,51.95
2022-10-08T02:51:15.490Z,51.94
2022-10-08T03:01:00.582Z,51.88
2022-10-08T03:10:45.893Z,51.86
2022-10-08T03:20:31.077Z,51.91
2022-10-08T03:25:23.738Z,51.95
2022-10-08T03:30:16.414Z,51.91
2022-10-08T03:35:08.899Z,51.88
2022-10-08T03:40:01.402Z,52.22
2022-10-08T03:44:53.842Z,52.28
2022-10-08T03:49:46.354Z,52.19
2022-10-08T03:54:38.879Z,52.11
2022-10-08T04:04:21.812Z,52.07
2022-10-08T04:09:12.373Z,52.03
2022-10-08T04:14:04.930Z,52.11
2022-10-08T04:18:57.621Z,52.06
2022-10-08T04:23:50.036Z,52.02
2022-10-08T04:28:42.696Z,52.19
2022-10-08T04:33:35.180Z,52.07
2022-10-08T04:38:27.811Z,54.66
2022-10-08T04:43:20.390Z,52.65
2022-10-08T04:48:12.927Z,53.64
2022-10-08T04:53:05.542Z,52.47
2022-10-08T04:57:58.271Z,52.09
2022-10-08T05:02:51.390Z,51.8
2022-10-08T05:07:43.620Z,52.05
2022-10-08T05:12:36.209Z,52.05
2022-10-08T05:17:28.760Z,51.42
2022-10-08T05:22:21.453Z,51.31
2022-10-08T05:27:14.089Z,52.25
2022-10-08T05:32:06.516Z,52.39
2022-10-08T05:36:59.400Z,51.73
2022-10-08T05:41:52.136Z,51.28
2022-10-08T05:46:44.883Z,51.58
2022-10-08T05:51:37.458Z,51.2
2022-10-08T05:56:30.030Z,51.37
2022-10-08T06:01:22.583Z,51.08
2022-10-08T06:06:15.014Z,50.96
2022-10-08T06:11:07.619Z,52.15
2022-10-08T06:16:00.307Z,50.79
2022-10-08T06:20:52.900Z,50.82
2022-10-08T06:25:45.406Z,50.82
2022-10-08T06:30:38.062Z,50.63
2022-10-08T06:35:30.561Z,50.73
2022-10-08T06:40:23.270Z,51.66
2022-10-08T06:45:15.835Z,50.6
2022-10-08T06:50:08.584Z,50.67
2022-10-08T06:55:01.066Z,50.63
2022-10-08T06:59:53.469Z,50.81
2022-10-08T07:04:46.290Z,50.48
2022-10-08T07:09:38.830Z,50.73
2022-10-08T07:14:31.259Z,50.6
2022-10-08T07:19:23.949Z,52.1
2022-10-08T07:24:16.495Z,50.87
2022-10-08T07:29:09.119Z,51.81
2022-10-08T07:34:01.792Z,50.27
2022-10-08T07:38:54.148Z,50.31
2022-10-08T07:43:46.632Z,50.19
2022-10-08T07:48:39.178Z,49.97
2022-10-08T07:58:19.189Z,49.81
2022-10-08T08:03:12.990Z,49.47
2022-10-08T08:08:05.957Z,50.01
2022-10-08T08:12:58.612Z,49.82
2022-10-08T08:17:51.099Z,49.47
2022-10-08T08:22:43.680Z,50.02
2022-10-08T08:27:36.263Z,49.59
2022-10-08T08:32:28.821Z,50.05
2022-10-08T08:37:21.101Z,49.87
2022-10-08T08:42:13.760Z,50.36
2022-10-08T08:47:06.367Z,50.52
2022-10-08T08:51:55.930Z,50.84
2022-10-08T08:56:49.222Z,51.17
2022-10-08T09:01:42.144Z,51.09
2022-10-08T09:06:34.801Z,51.29
2022-10-08T09:16:20.109Z,50.64
2022-10-08T09:26:05.584Z,50.22
2022-10-08T09:31:00.310Z,50.17
2022-10-08T09:35:51.139Z,50.07
2022-10-08T09:40:44.059Z,50.04
2022-10-08T09:45:37.038Z,50
2022-10-08T09:50:29.668Z,50.02
2022-10-08T09:55:22.353Z,49.84
2022-10-08T10:00:15.141Z,49.92
2022-10-08T10:05:07.900Z,49.82
2022-10-08T10:10:00.560Z,49.95
2022-10-08T10:14:52.774Z,49.99
2022-10-08T10:19:45.545Z,50.21
2022-10-08T10:24:38.409Z,50.26
2022-10-08T10:29:31.261Z,50.34
2022-10-08T10:34:23.986Z,50.36
2022-10-08T10:39:16.872Z,50.51
2022-10-08T10:44:09.504Z,50.42
2022-10-08T10:49:01.999Z,50.7
2022-10-08T10:53:54.702Z,50.12
2022-10-08T10:58:47.265Z,50.64
2022-10-08T11:03:39.827Z,50.78
2022-10-08T11:08:32.609Z,50.73
2022-10-08T11:13:25.235Z,50.74
2022-10-08T11:18:18.105Z,50.81
2022-10-08T11:23:10.940Z,50.85
2022-10-08T11:28:03.986Z,50.99
2022-10-08T11:32:56.694Z,50.93
2022-10-08T11:37:49.498Z,50.91
2022-10-08T11:42:45.093Z,51.03
2022-10-08T11:47:34.581Z,50.99
2022-10-08T11:52:27.287Z,50.98
2022-10-08T11:57:19.999Z,51.13
2022-10-08T12:02:12.767Z,51
2022-10-08T12:07:05.588Z,50.97
2022-10-08T12:11:58.520Z,51.08
2022-10-08T12:16:51.293Z,51.1
2022-10-08T12:21:44.030Z,51.16
2022-10-08T12:26:36.836Z,51.19
2022-10-08T12:31:29.457Z,51.2
2022-10-08T12:36:22.182Z,51.18
2022-10-08T12:41:14.862Z,51.27
2022-10-08T12:46:07.705Z,51.21
2022-10-08T12:51:00.356Z,51.22
2022-10-08T12:55:53.024Z,51.4
2022-10-08T13:00:46.255Z,51.3
2022-10-08T13:05:38.701Z,51.39
2022-10-08T13:10:31.402Z,51.32
2022-10-08T13:15:24.128Z,51.12
2022-10-08T13:20:16.927Z,51.41
2022-10-08T13:25:09.431Z,51.07
2022-10-08T13:30:02.122Z,51.2
2022-10-08T13:34:55.013Z,50.88
2022-10-08T13:39:47.657Z,51.03
2022-10-08T13:44:40.326Z,51.15
2022-10-08T13:49:33.252Z,50.61
2022-10-08T13:54:25.929Z,50.45
2022-10-08T13:59:18.829Z,50.7
2022-10-08T14:04:13.455Z,51.02
2022-10-08T14:09:05.771Z,51.11
2022-10-08T14:13:58.561Z,51.27
2022-10-08T16:57:38.705Z,51.53
2022-10-08T17:02:30.072Z,51.71
2022-10-08T17:07:22.430Z,51.74
2022-10-08T17:17:07.697Z,52.01
2022-10-08T17:26:53.113Z,52.13
2022-10-08T17:31:45.757Z,52.19
2022-10-08T17:36:38.401Z,52.23
2022-10-08T17:41:30.769Z,52.28
2022-10-08T17:46:23.578Z,52.4
2022-10-08T17:51:16.156Z,52.46
2022-10-08T17:56:08.681Z,52.44
2022-10-08T18:01:00.977Z,52.58
2022-10-08T18:05:53.806Z,52.47
2022-10-08T18:10:46.535Z,52.52
2022-10-08T18:15:39.196Z,52.43
2022-10-08T18:20:31.735Z,52.53
2022-10-08T18:25:24.549Z,52.65
2022-10-08T18:30:17.206Z,52.71
2022-10-08T18:35:10.805Z,52.81
2022-10-08T18:40:02.572Z,52.81
2022-10-08T18:44:55.009Z,52.88
2022-10-08T18:49:47.800Z,52.92
2022-10-08T18:54:40.489Z,52.93
2022-10-08T18:59:33.231Z,52.98
2022-10-08T19:04:25.692Z,52.98
2022-10-08T19:09:18.534Z,53.07
2022-10-08T19:14:11.213Z,53.07
2022-10-08T19:19:03.775Z,53.05
2022-10-08T19:23:56.346Z,53.06
2022-10-08T19:28:48.976Z,53.07
2022-10-08T19:33:41.586Z,53.1
2022-10-08T19:38:34.355Z,53.12
2022-10-08T19:43:27.932Z,53.2
2022-10-08T19:48:19.562Z,53.19
2022-10-08T19:53:12.105Z,53.22
2022-10-08T19:58:04.655Z,53.22
2022-10-08T20:02:57.283Z,53.32
2022-10-08T20:07:50.062Z,53.25
2022-10-08T20:12:42.647Z,53.26
2022-10-08T20:17:35.153Z,53.32
2022-10-08T20:22:27.627Z,53.33
2022-10-08T20:27:20.013Z,53.37
2022-10-08T20:32:12.544Z,53.46
2022-10-08T20:37:05.115Z,53.35
2022-10-08T20:41:57.841Z,53.45
2022-10-08T20:46:50.694Z,53.53
2022-10-08T20:51:43.346Z,53.52
2022-10-08T20:56:39.681Z,53.51
2022-10-08T21:01:28.546Z,53.46
2022-10-08T21:06:20.960Z,53.38
2022-10-08T21:11:13.617Z,54.02
2022-10-08T21:16:06.215Z,53.2
2022-10-08T21:20:58.683Z,53.23
2022-10-08T21:25:51.406Z,53.15
2022-10-08T21:30:43.981Z,53.14
2022-10-08T21:35:36.516Z,53.08
2022-10-08T21:40:29.345Z,53.05
2022-10-08T21:45:21.838Z,53.04
2022-10-08T21:50:14.220Z,53.09
2022-10-08T21:55:06.820Z,53.1
2022-10-08T21:59:59.660Z,53.1
2022-10-08T22:04:52.356Z,53.1
2022-10-08T22:09:44.765Z,53.09
2022-10-08T22:14:37.482Z,53.07
2022-10-08T22:19:29.960Z,53.07
2022-10-08T22:24:22.557Z,53.05
2022-10-08T22:29:09.050Z,53.04
2022-10-08T22:34:05.749Z,53.09
2022-10-08T22:43:50.810Z,53.08
2022-10-08T22:53:35.880Z,53.01
2022-10-08T23:03:21.321Z,53.01
2022-10-08T23:08:13.950Z,53.01
2022-10-08T23:13:06.498Z,52.98
2022-10-08T23:17:59.040Z,53
2022-10-08T23:22:51.830Z,52.95
2022-10-08T23:27:44.361Z,52.94
2022-10-08T23:32:36.776Z,52.99
2022-10-08T23:37:29.513Z,52.99
2022-10-08T23:42:22.070Z,52.98
2022-10-08T23:47:14.619Z,52.96
2022-10-08T23:52:07.316Z,52.93
2022-10-08T23:56:59.957Z,52.9
